Time;durP1;ratioP1;P1;durP2;ratioP2;P2;SDS_P1;SDS_P2;PMS_P1;PMS_P2;Temp;Humidity;BMP_temperature;BMP_pressure;BME280_temperature;BME280_humidity;BME280_pressure;Samples;Min_cycle;Max_cycle;Signal;HPM_P1;HPM_P2
2023/10/10 00:01:17;;;;;;;16.52;4.30;;;;;;;15.78;44.15;95575.19;5003305;28;20037;-75
2023/10/10 00:03:45;;;;;;;25.70;7.28;;;;;;;15.62;43.65;95533.78;5025743;28;20033;-75
2023/10/10 00:06:13;;;;;;;27.83;9.60;;;;;;;15.70;44.82;95557.94;5028841;28;20459;-75
2023/10/10 00:08:46;;;;;;;26.00;8.38;;;;;;;15.51;44.47;95540.34;4990571;28;20080;-76
2023/10/10 00:11:16;;;;;;;14.45;5.15;;;;;;;15.82;43.86;95558.22;5019465;28;20488;-75
2023/10/10 00:13:43;;;;;;;12.20;4.35;;;;;;;15.87;43.66;95556.56;5027741;28;20033;-75
2023/10/10 00:16:35;;;;;;;15.48;4.35;;;;;;;15.93;43.54;95561.50;5020869;28;20045;-77
2023/10/10 00:19:21;;;;;;;14.45;4.63;;;;;;;15.89;42.85;95544.47;4999078;28;20151;-75
2023/10/10 00:21:47;;;;;;;13.23;3.67;;;;;;;15.80;43.16;95538.22;5017319;28;20046;-76
2023/10/10 00:24:14;;;;;;;12.13;3.63;;;;;;;15.54;43.11;95500.50;5002146;28;20095;-75
2023/10/10 00:26:42;;;;;;;11.23;3.58;;;;;;;15.66;42.95;95530.19;5020762;28;20037;-75
2023/10/10 00:29:09;;;;;;;9.95;3.72;;;;;;;15.87;42.68;95543.97;5002755;28;20060;-75
2023/10/10 00:31:35;;;;;;;10.35;4.78;;;;;;;15.91;42.63;95544.16;5008983;28;20122;-75
2023/10/10 00:34:00;;;;;;;11.60;3.30;;;;;;;15.91;42.83;95539.63;5011001;28;20041;-75
2023/10/10 00:36:35;;;;;;;10.20;3.25;;;;;;;15.83;43.23;95538.44;5010423;28;20057;-75
2023/10/10 00:41:44;;;;;;;15.52;3.50;;;;;;;15.86;43.02;95537.06;5017930;28;20419;-75
2023/10/10 00:44:13;;;;;;;22.80;4.05;;;;;;;15.98;42.32;95550.72;5015569;28;20140;-77
2023/10/10 00:46:39;;;;;;;11.10;3.72;;;;;;;15.81;42.13;95521.88;5014141;28;20483;-75
2023/10/10 00:49:08;;;;;;;18.15;4.05;;;;;;;16.02;41.99;95546.31;5007260;28;20386;-75
2023/10/10 00:51:34;;;;;;;9.57;3.60;;;;;;;16.04;42.32;95541.47;5007143;28;20045;-75
2023/10/10 00:54:43;;;;;;;11.38;3.88;;;;;;;16.06;41.75;95541.19;5012992;28;20065;-75
2023/10/10 00:56:54;;;;;;;14.75;4.07;;;;;;;16.08;41.78;95545.16;5005829;28;20101;-75
2023/10/10 00:59:42;;;;;;;9.63;3.43;;;;;;;16.06;42.42;95533.16;5026513;28;20105;-75
2023/10/10 01:02:10;;;;;;;10.73;3.78;;;;;;;15.88;42.66;95518.00;5004219;28;20046;-77
2023/10/10 01:04:48;;;;;;;12.88;4.28;;;;;;;15.93;42.11;95534.78;5010004;28;20550;-77
2023/10/10 01:07:21;;;;;;;7.35;3.40;;;;;;;16.01;42.39;95539.41;5013960;28;20110;-77
2023/10/10 01:12:20;;;;;;;6.85;3.47;;;;;;;15.54;42.82;95473.78;5016845;28;20116;-77
2023/10/10 01:14:46;;;;;;;16.08;3.50;;;;;;;15.72;42.57;95498.81;5011660;28;20046;-77
2023/10/10 01:17:12;;;;;;;12.15;3.78;;;;;;;15.58;43.38;95490.78;5018653;28;20471;-77
2023/10/10 01:19:38;;;;;;;10.20;3.80;;;;;;;15.64;42.88;95496.84;5009673;28;20110;-77
2023/10/10 01:22:09;;;;;;;15.77;3.92;;;;;;;15.94;42.81;95522.97;5005311;28;20424;-77
2023/10/10 01:24:35;;;;;;;9.32;3.53;;;;;;;15.94;42.48;95522.97;5000985;28;20045;-77
2023/10/10 01:27:05;;;;;;;11.70;4.10;;;;;;;15.85;42.17;95505.25;5003490;28;20061;-77
2023/10/10 01:29:40;;;;;;;12.77;3.40;;;;;;;15.85;42.28;95522.09;5013778;28;20263;-77
2023/10/10 01:32:10;;;;;;;14.38;3.75;;;;;;;15.54;42.92;95483.66;5013982;28;20042;-77
2023/10/10 01:34:45;;;;;;;12.05;3.97;;;;;;;15.58;42.69;95498.00;5015691;28;20042;-77
2023/10/10 01:37:14;;;;;;;14.20;4.70;;;;;;;15.44;42.73;95503.31;4999443;28;20042;-78
2023/10/10 01:40:15;;;;;;;8.80;3.58;;;;;;;15.81;42.93;95558.53;5024747;28;20104;-77
2023/10/10 01:42:59;;;;;;;8.20;3.23;;;;;;;15.47;43.50;95505.41;5019223;28;20066;-77
2023/10/10 01:45:27;;;;;;;11.80;3.60;;;;;;;15.41;43.22;95509.25;5022822;28;20045;-77
2023/10/10 01:47:56;;;;;;;10.00;3.83;;;;;;;15.61;43.14;95534.84;5033039;28;20045;-77
2023/10/10 01:50:30;;;;;;;15.00;4.25;;;;;;;15.64;43.70;95542.28;5023329;28;20050;-77
2023/10/10 01:52:56;;;;;;;12.88;3.83;;;;;;;15.44;43.77;95517.47;4996386;28;20033;-77
2023/10/10 01:55:24;;;;;;;11.52;4.05;;;;;;;15.36;44.07;95512.03;5008178;28;20416;-77
2023/10/10 01:58:02;;;;;;;16.25;4.53;;;;;;;15.33;44.14;95501.94;5011556;28;20045;-77
2023/10/10 02:00:34;;;;;;;19.15;4.15;;;;;;;15.60;44.18;95531.38;5004930;28;20072;-77
2023/10/10 02:03:01;;;;;;;15.85;3.38;;;;;;;15.75;44.37;95554.38;4999024;28;20430;-77
2023/10/10 02:08:09;;;;;;;11.90;3.72;;;;;;;15.36;44.95;95498.66;5015911;28;20463;-77
2023/10/10 02:10:43;;;;;;;16.23;4.03;;;;;;;15.72;44.78;95555.75;5005013;28;20134;-77
2023/10/10 02:13:11;;;;;;;15.48;4.10;;;;;;;14.96;44.88;95446.75;4995339;28;20496;-78
2023/10/10 02:15:39;;;;;;;13.02;4.75;;;;;;;15.58;44.92;95554.16;5007791;28;20515;-77
2023/10/10 02:18:17;;;;;;;12.48;4.10;;;;;;;15.61;44.75;95534.84;5010528;28;20065;-77
2023/10/10 02:25:55;;;;;;;22.20;3.85;;;;;;;15.62;46.95;95563.19;5023586;28;20123;-77
2023/10/10 02:28:22;;;;;;;18.38;3.35;;;;;;;15.66;47.05;95562.28;5010223;28;20045;-77
2023/10/10 02:30:52;;;;;;;7.75;3.00;;;;;;;15.75;47.16;95549.03;4995821;28;20129;-77
2023/10/10 02:35:56;;;;;;;11.35;3.10;;;;;;;15.43;46.89;95478.47;5016202;28;20148;-77
2023/10/10 02:38:32;;;;;;;16.38;3.38;;;;;;;15.94;46.96;95554.28;5022888;28;20045;-77
2023/10/10 02:41:15;;;;;;;14.35;3.08;;;;;;;15.99;47.72;95562.19;5006711;28;20088;-77
2023/10/10 02:46:38;;;;;;;9.25;3.28;;;;;;;15.96;47.38;95507.41;5005363;28;20507;-77
2023/10/10 02:49:09;;;;;;;11.18;3.08;;;;;;;16.14;47.44;95522.56;5000582;28;20130;-77
2023/10/10 02:51:41;;;;;;;18.17;3.95;;;;;;;16.18;47.21;95534.22;5004185;28;20557;-77
2023/10/10 02:55:14;;;;;;;17.85;3.00;;;;;;;16.16;47.25;95522.25;5008279;28;20487;-77
2023/10/10 02:59:59;;;;;;;14.13;4.18;;;;;;;16.37;46.93;95519.94;5003026;28;20511;-77
2023/10/10 03:02:29;;;;;;;18.88;4.78;;;;;;;16.26;47.28;95508.66;5019715;28;20140;-77
2023/10/10 03:05:06;;;;;;;20.05;4.70;;;;;;;16.12;47.40;95481.91;4999627;28;20034;-77
2023/10/10 03:07:35;;;;;;;8.93;3.75;;;;;;;16.42;47.75;95535.88;5009264;28;20497;-77
2023/10/10 03:10:22;;;;;;;11.63;3.67;;;;;;;16.39;47.43;95523.09;4997652;28;20739;-77
2023/10/10 03:12:49;;;;;;;17.00;4.07;;;;;;;16.53;47.85;95539.91;4996957;28;20069;-77
2023/10/10 03:17:49;;;;;;;6.68;2.65;;;;;;;16.68;47.88;95550.31;5005437;28;20140;-77
2023/10/10 03:25:54;;;;;;;13.70;3.30;;;;;;;16.52;47.64;95524.94;4988596;28;19923;-75
2023/10/10 05:24:51;;;;;;;13.02;3.95;;;;;;;16.29;54.12;95615.09;4980875;28;20063;-77
2023/10/10 05:27:29;;;;;;;20.52;4.13;;;;;;;16.25;54.46;95613.34;4989215;28;20476;-76
2023/10/10 05:29:55;;;;;;;16.63;3.90;;;;;;;16.22;54.58;95606.69;4994361;28;20045;-77
2023/10/10 05:32:22;;;;;;;16.25;4.35;;;;;;;16.04;54.68;95583.50;4972663;28;20654;-77
2023/10/10 05:34:49;;;;;;;19.75;5.05;;;;;;;15.82;54.95;95576.16;4975073;28;20536;-76
2023/10/10 05:37:15;;;;;;;18.65;4.13;;;;;;;16.33;54.98;95658.91;4987797;28;20033;-77
2023/10/10 05:39:40;;;;;;;17.85;4.40;;;;;;;15.97;55.07;95612.53;4987731;28;20056;-76
2023/10/10 05:42:08;;;;;;;5.78;3.45;;;;;;;16.02;55.40;95607.09;4987067;28;20048;-74
2023/10/10 05:44:38;;;;;;;11.98;4.00;;;;;;;15.45;55.53;95534.31;5000736;28;20041;-77
2023/10/10 05:47:06;;;;;;;14.50;4.22;;;;;;;16.26;55.30;95639.78;5005223;28;20063;-76
2023/10/10 05:49:32;;;;;;;11.10;4.22;;;;;;;16.15;55.31;95619.66;4981866;28;20072;-76
2023/10/10 05:51:58;;;;;;;15.82;3.97;;;;;;;16.16;55.31;95624.72;4984912;28;20119;-75
2023/10/10 05:54:24;;;;;;;10.40;3.25;;;;;;;16.20;55.27;95641.75;5005742;28;20041;-77
2023/10/10 05:56:50;;;;;;;8.73;4.00;;;;;;;16.20;55.32;95635.63;4988701;28;20216;-75
2023/10/10 05:59:15;;;;;;;13.13;3.83;;;;;;;16.28;55.00;95650.19;5016892;28;20041;-74
2023/10/10 06:01:41;;;;;;;13.20;3.97;;;;;;;16.16;55.09;95602.53;4986256;28;20041;-76
2023/10/10 06:04:07;;;;;;;13.32;4.07;;;;;;;16.24;54.66;95603.72;4980675;28;20557;-75
2023/10/10 06:06:35;;;;;;;20.35;4.07;;;;;;;16.15;54.44;95599.06;4998373;28;20056;-78
2023/10/10 06:09:01;;;;;;;16.73;3.47;;;;;;;16.33;54.11;95626.00;4992624;28;20223;-76
2023/10/10 06:11:29;;;;;;;10.55;4.10;;;;;;;16.55;53.84;95632.22;4997914;28;21290;-78
2023/10/10 06:13:54;;;;;;;10.55;4.05;;;;;;;16.44;54.29;95620.16;4976410;28;20049;-76
2023/10/10 06:16:20;;;;;;;17.88;4.22;;;;;;;16.62;54.08;95629.19;4974963;28;20088;-78
2023/10/10 06:18:47;;;;;;;17.35;4.80;;;;;;;16.35;53.75;95581.00;4974286;28;20140;-78
2023/10/10 06:21:14;;;;;;;19.05;4.85;;;;;;;16.55;54.00;95618.81;5000889;28;20369;-77
2023/10/10 06:23:42;;;;;;;19.42;4.78;;;;;;;16.63;53.90;95640.69;5019505;28;20073;-77
2023/10/10 06:26:08;;;;;;;16.58;3.92;;;;;;;16.44;54.07;95624.72;5017726;28;20037;-79
2023/10/10 06:28:45;;;;;;;18.42;4.80;;;;;;;16.51;54.36;95638.47;5011511;28;20420;-77
2023/10/10 06:31:14;;;;;;;12.93;4.78;;;;;;;16.39;54.38;95630.19;4996361;28;20037;-78
2023/10/10 06:33:44;;;;;;;16.73;4.22;;;;;;;16.10;54.49;95595.66;5000225;28;20057;-79
2023/10/10 06:41:54;;;;;;;11.05;3.92;;;;;;;16.51;54.40;95625.09;4991451;28;20041;-79
2023/10/10 06:44:32;;;;;;;14.57;3.95;;;;;;;16.64;54.36;95640.38;4959492;28;20758;-79
2023/10/10 06:46:59;;;;;;;14.63;4.15;;;;;;;16.77;54.05;95639.56;4990875;28;20108;-79
2023/10/10 06:49:25;;;;;;;16.98;3.92;;;;;;;16.84;53.95;95665.94;5007955;28;20688;-77
2023/10/10 06:51:55;;;;;;;14.40;4.03;;;;;;;16.81;54.02;95678.03;4986517;28;20097;-80
2023/10/10 06:54:27;;;;;;;15.13;4.55;;;;;;;16.75;54.39;95657.81;5006297;28;20127;-80
2023/10/10 06:59:27;;;;;;;17.48;3.58;;;;;;;16.62;54.41;95655.97;4996366;28;20595;-79
2023/10/10 07:01:54;;;;;;;17.13;4.13;;;;;;;16.74;54.67;95674.97;4975039;28;20235;-78
2023/10/10 07:04:20;;;;;;;17.27;4.72;;;;;;;16.75;54.68;95652.47;4985509;28;20332;-78
2023/10/10 07:06:47;;;;;;;8.80;3.30;;;;;;;16.74;54.62;95658.13;4995598;28;20042;-78
2023/10/10 07:09:28;;;;;;;11.63;3.95;;;;;;;16.90;54.33;95654.81;5002154;28;20092;-78
2023/10/10 07:12:09;;;;;;;13.23;4.68;;;;;;;17.20;54.06;95664.06;5001437;28;20050;-77
2023/10/10 07:14:43;;;;;;;17.77;4.63;;;;;;;17.29;53.41;95672.16;4977002;28;20056;-79
2023/10/10 07:17:13;;;;;;;18.40;4.53;;;;;;;17.24;53.50;95694.50;4996259;28;20698;-79
2023/10/10 07:19:55;;;;;;;22.85;4.25;;;;;;;16.73;53.93;95627.88;5006137;28;20070;-78
2023/10/10 07:22:22;;;;;;;10.80;4.38;;;;;;;16.64;54.11;95610.91;4977803;28;20253;-78
2023/10/10 07:24:55;;;;;;;18.38;4.57;;;;;;;16.88;54.59;95669.59;5001263;28;20037;-79
2023/10/10 07:27:29;;;;;;;19.30;4.90;;;;;;;17.00;54.66;95674.44;4990222;28;20081;-79
2023/10/10 07:32:28;;;;;;;9.10;3.97;;;;;;;16.86;54.67;95643.09;5013280;28;20884;-78
2023/10/10 07:34:54;;;;;;;14.15;4.20;;;;;;;16.92;54.51;95644.59;4986520;28;20042;-78
2023/10/10 07:37:22;;;;;;;19.80;4.35;;;;;;;16.55;54.71;95596.66;5012417;28;20045;-78
2023/10/10 07:40:18;;;;;;;12.27;4.10;;;;;;;16.79;54.82;95623.19;5001491;28;20088;-79
2023/10/10 07:42:50;;;;;;;10.60;4.10;;;;;;;16.74;54.98;95615.25;5012043;28;20118;-78
2023/10/10 07:45:28;;;;;;;11.93;4.03;;;;;;;16.52;54.76;95573.94;4978791;28;20045;-79
2023/10/10 07:48:39;;;;;;;14.40;3.83;;;;;;;16.74;54.90;95617.94;5013770;28;20137;-79
2023/10/10 07:50:48;;;;;;;14.90;4.38;;;;;;;16.79;55.03;95634.69;4994120;28;21563;-79
2023/10/10 07:53:15;;;;;;;19.92;4.97;;;;;;;17.01;55.09;95673.34;5009742;28;20189;-79
2023/10/10 07:55:59;;;;;;;16.48;4.38;;;;;;;16.74;55.20;95639.38;4988239;28;20045;-77
2023/10/10 07:58:27;;;;;;;12.15;4.20;;;;;;;17.10;55.03;95682.25;5000526;28;20578;-78
2023/10/10 08:01:08;;;;;;;13.95;4.10;;;;;;;16.93;54.29;95646.19;4974294;28;20052;-78
2023/10/10 08:03:34;;;;;;;17.70;4.05;;;;;;;17.41;54.04;95699.22;5000768;28;20053;-77
2023/10/10 08:05:59;;;;;;;14.70;4.85;;;;;;;16.85;54.13;95614.75;5010702;28;20327;-76
2023/10/10 08:08:26;;;;;;;20.38;4.43;;;;;;;16.77;54.16;95582.53;5000739;28;20147;-76
2023/10/10 08:10:51;;;;;;;20.05;4.75;;;;;;;17.63;53.85;95693.09;5005900;28;20077;-75
2023/10/10 08:13:18;;;;;;;18.02;5.43;;;;;;;17.70;53.67;95698.81;4981952;28;20084;-77
2023/10/10 08:16:03;;;;;;;17.70;4.85;;;;;;;17.27;53.98;95667.09;4999138;28;20107;-78
2023/10/10 08:21:11;;;;;;;21.83;5.38;;;;;;;17.45;54.32;95708.25;5011594;28;20502;-75
2023/10/10 08:23:45;;;;;;;13.43;4.20;;;;;;;17.26;54.84;95695.00;5014045;28;20099;-78
2023/10/10 08:26:26;;;;;;;19.25;5.10;;;;;;;17.30;54.80;95692.53;5015692;28;20046;-77
2023/10/10 08:28:52;;;;;;;14.13;5.07;;;;;;;17.40;54.39;95684.22;5014083;28;20045;-78
2023/10/10 08:31:20;;;;;;;13.20;4.47;;;;;;;17.21;54.76;95686.28;5004211;28;20568;-75
2023/10/10 08:33:48;;;;;;;15.40;4.88;;;;;;;17.35;54.71;95700.44;4993602;28;20583;-75
2023/10/10 08:36:23;;;;;;;18.45;4.88;;;;;;;17.08;55.17;95685.25;5004448;28;20056;-76
2023/10/10 08:38:58;;;;;;;26.75;6.10;;;;;;;16.42;55.29;95566.09;4991590;28;20057;-78
2023/10/10 08:41:31;;;;;;;20.63;5.95;;;;;;;16.85;55.23;95640.75;5007322;28;20145;-75
2023/10/10 08:44:01;;;;;;;22.33;6.20;;;;;;;17.26;55.27;95705.72;4990503;28;20061;-78
2023/10/10 08:46:32;;;;;;;19.88;5.78;;;;;;;16.83;55.21;95622.28;4968380;28;20479;-77
2023/10/10 08:48:59;;;;;;;15.40;5.63;;;;;;;17.44;54.97;95698.63;4984641;28;20053;-78
2023/10/10 08:51:32;;;;;;;34.03;7.00;;;;;;;17.20;54.88;95682.03;4975813;28;20293;-76
2023/10/10 08:54:02;;;;;;;16.15;5.50;;;;;;;17.20;54.99;95685.50;4985524;28;20078;-76
2023/10/10 08:56:37;;;;;;;23.95;6.13;;;;;;;17.43;55.06;95715.81;5010310;28;20130;-73
2023/10/10 08:59:12;;;;;;;19.55;5.15;;;;;;;17.21;55.76;95729.19;5015750;28;20496;-75
2023/10/10 09:01:38;;;;;;;21.30;5.28;;;;;;;17.25;56.15;95751.59;4990423;28;20073;-75
2023/10/10 09:04:05;;;;;;;16.50;5.85;;;;;;;17.04;56.00;95680.78;4980246;28;20505;-75
2023/10/10 09:06:44;;;;;;;19.85;5.45;;;;;;;17.11;56.22;95699.91;4985087;28;20540;-75
2023/10/10 09:09:33;;;;;;;15.68;4.65;;;;;;;17.27;55.75;95717.25;5006114;28;20044;-75
2023/10/10 09:11:57;;;;;;;16.77;5.13;;;;;;;16.98;55.71;95670.19;5009802;28;20535;-75
2023/10/10 09:14:51;;;;;;;22.40;5.25;;;;;;;17.43;55.44;95729.22;5014951;28;20180;-76
2023/10/10 09:17:40;;;;;;;18.10;5.05;;;;;;;17.34;55.75;95725.66;5009700;28;20045;-74
2023/10/10 09:20:22;;;;;;;17.13;5.03;;;;;;;17.24;55.87;95720.53;4977571;28;20062;-75
2023/10/10 09:22:52;;;;;;;16.67;5.45;;;;;;;17.37;55.82;95719.69;4971788;28;20065;-75
2023/10/10 09:25:25;;;;;;;13.77;5.10;;;;;;;17.00;55.62;95655.69;4970764;28;20046;-75
2023/10/10 09:28:04;;;;;;;17.90;5.45;;;;;;;17.13;55.27;95655.66;4968695;28;20458;-75
2023/10/10 09:30:50;;;;;;;13.75;4.32;;;;;;;17.32;55.11;95693.78;4971801;28;20034;-77
2023/10/10 09:35:49;;;;;;;12.38;4.43;;;;;;;17.74;54.79;95713.22;4969760;28;20129;-77
2023/10/10 09:38:20;;;;;;;15.98;4.82;;;;;;;17.56;54.51;95680.09;4979738;28;20038;-76
2023/10/10 09:40:59;;;;;;;29.77;5.13;;;;;;;17.89;54.14;95707.47;4966317;28;20065;-77
2023/10/10 09:43:35;;;;;;;12.57;3.75;;;;;;;17.56;53.74;95631.81;4977557;28;20490;-78
2023/10/10 09:46:19;;;;;;;10.75;3.88;;;;;;;17.86;53.55;95675.09;4984919;28;20105;-77
2023/10/10 09:52:47;;;;;;;16.83;4.65;;;;;;;18.02;52.92;95670.94;4971168;28;20044;-76
2023/10/10 09:54:18;;;;;;;7.90;3.78;;;;;;;18.49;52.31;95715.84;4973901;28;20069;-76
2023/10/10 09:56:50;;;;;;;15.32;3.47;;;;;;;18.60;52.15;95699.47;4985532;28;20054;-77
2023/10/10 09:59:20;;;;;;;15.80;4.45;;;;;;;18.51;51.59;95691.38;4970393;28;20462;-76
2023/10/10 10:01:59;;;;;;;14.05;3.97;;;;;;;18.50;51.98;95704.00;4962138;28;20045;-76
2023/10/10 10:04:28;;;;;;;14.90;4.25;;;;;;;18.58;51.69;95696.31;4978113;28;20050;-77
2023/10/10 10:07:14;;;;;;;9.27;4.20;;;;;;;18.64;51.87;95697.75;4967466;28;20141;-78
2023/10/10 10:09:46;;;;;;;15.18;4.43;;;;;;;18.78;51.50;95688.47;4955276;28;20649;-78
2023/10/10 10:12:30;;;;;;;;;;;;;;;19.07;50.95;95681.72;4968002;28;20112;-76
2023/10/10 10:15:18;;;;;;;9.02;3.53;;;;;;;19.03;50.41;95653.88;4967245;28;19942;-77
2023/10/10 10:18:26;;;;;;;13.25;4.65;;;;;;;19.22;50.26;95659.75;4971632;28;20097;-75
2023/10/10 10:23:45;;;;;;;13.85;3.88;;;;;;;19.40;49.15;95671.28;4975118;28;20082;-77
2023/10/10 10:26:11;;;;;;;10.02;3.88;;;;;;;19.35;49.71;95666.88;4962077;28;20034;-78
2023/10/10 10:28:41;;;;;;;10.57;3.63;;;;;;;19.47;49.50;95677.00;4952084;28;20140;-80
2023/10/10 10:31:28;;;;;;;8.18;3.88;;;;;;;19.35;49.46;95676.84;4960191;28;20513;-78
2023/10/10 10:37:20;;;;;;;10.88;3.67;;;;;;;19.05;50.10;95652.47;4963959;28;20039;-77
2023/10/10 10:42:50;;;;;;;16.63;4.90;;;;;;;18.93;50.66;95667.63;4950608;28;19930;-77
2023/10/10 10:45:37;;;;;;;11.00;3.83;;;;;;;18.77;51.21;95667.28;4966669;28;20034;-77
2023/10/10 10:48:28;;;;;;;8.98;3.33;;;;;;;18.57;51.15;95624.88;4962930;28;20130;-77
2023/10/10 10:50:58;;;;;;;12.00;3.95;;;;;;;18.49;51.42;95613.00;4959023;28;20042;-78
2023/10/10 10:53:30;;;;;;;12.50;3.10;;;;;;;18.38;51.51;95622.47;4967120;28;20508;-77
2023/10/10 11:01:22;;;;;;;17.58;4.03;;;;;;;18.42;52.02;95655.63;4968491;28;20278;-78
2023/10/10 11:03:51;;;;;;;11.65;3.85;;;;;;;18.39;51.88;95637.44;4973441;28;20051;-77
2023/10/10 11:06:20;;;;;;;15.85;3.80;;;;;;;18.29;52.04;95618.94;4969845;28;20140;-77
2023/10/10 11:16:46;;;;;;;17.42;4.30;;;;;;;18.46;51.96;95638.56;4952352;28;20057;-78
2023/10/10 11:22:05;;;;;;;9.43;3.78;;;;;;;18.56;51.38;95650.94;5001471;28;20036;-76
2023/10/10 11:24:34;;;;;;;12.95;3.58;;;;;;;18.59;51.30;95654.91;4973820;28;20053;-78
2023/10/10 11:29:41;;;;;;;12.88;3.33;;;;;;;18.63;50.75;95662.03;4989943;28;20795;-78
2023/10/10 11:32:08;;;;;;;13.70;3.80;;;;;;;18.54;51.11;95653.13;4991181;28;20046;-79
2023/10/10 11:34:46;;;;;;;14.75;4.18;;;;;;;18.52;51.03;95644.59;4998956;28;20618;-78
2023/10/10 11:37:32;;;;;;;8.13;3.33;;;;;;;18.39;50.99;95618.63;4999343;28;20050;-76
2023/10/10 11:42:55;;;;;;;13.38;3.55;;;;;;;18.65;50.80;95645.59;5009684;28;20056;-76
2023/10/10 11:45:25;;;;;;;11.48;4.30;;;;;;;18.66;50.25;95626.50;5014042;28;20585;-78
2023/10/10 11:47:52;;;;;;;11.85;3.30;;;;;;;18.75;50.47;95638.06;5010846;28;20481;-77
2023/10/10 11:50:22;;;;;;;13.90;3.72;;;;;;;18.85;49.96;95636.94;5011774;28;20042;-78
2023/10/10 11:52:56;;;;;;;13.00;4.03;;;;;;;18.56;50.07;95596.41;5005151;28;20053;-75
2023/10/10 11:55:25;;;;;;;14.52;4.22;;;;;;;18.81;50.24;95633.31;4998566;28;20500;-78
2023/10/10 11:57:57;;;;;;;15.90;3.03;;;;;;;18.82;50.29;95654.50;5014370;28;20049;-76
2023/10/10 12:00:29;;;;;;;10.85;3.42;;;;;;;18.67;50.53;95641.50;5014201;28;20450;-76
2023/10/10 12:02:58;;;;;;;16.73;3.83;;;;;;;18.67;50.32;95638.03;4974168;28;20057;-75
2023/10/10 12:07:53;;;;;;;9.25;3.63;;;;;;;18.74;50.20;95632.97;5013844;28;20162;-76
2023/10/10 12:10:24;;;;;;;14.93;3.90;;;;;;;18.67;50.16;95621.91;5006441;28;20515;-78
2023/10/10 12:12:53;;;;;;;11.32;3.63;;;;;;;18.46;50.17;95590.22;5005758;28;20214;-76
2023/10/10 12:15:22;;;;;;;13.75;4.13;;;;;;;18.82;49.94;95634.91;4993946;28;20041;-77
2023/10/10 12:17:48;;;;;;;17.20;4.45;;;;;;;18.99;49.76;95645.66;5006731;28;20422;-74
2023/10/10 12:20:16;;;;;;;15.20;3.40;;;;;;;18.90;49.44;95650.25;4992448;28;20057;-75
2023/10/10 12:22:41;;;;;;;13.18;3.70;;;;;;;18.56;49.48;95602.59;5009524;28;20057;-75
2023/10/10 12:25:13;;;;;;;16.02;3.97;;;;;;;18.80;49.58;95612.91;5003834;28;20454;-74
2023/10/10 12:27:46;;;;;;;10.07;3.15;;;;;;;18.77;49.51;95629.66;5002292;28;20037;-75
2023/10/10 12:30:13;;;;;;;16.77;4.32;;;;;;;18.84;49.81;95625.41;4997861;28;20079;-75
2023/10/10 12:32:38;;;;;;;12.45;4.05;;;;;;;18.95;49.79;95639.34;5001546;28;20785;-74
2023/10/10 12:35:04;;;;;;;21.38;5.53;;;;;;;18.97;49.84;95618.31;5014111;28;20520;-74
2023/10/10 12:37:36;;;;;;;13.50;4.90;;;;;;;19.23;50.20;95639.81;5007085;28;20076;-76
2023/10/10 12:40:08;;;;;;;15.13;4.95;;;;;;;18.96;50.68;95608.66;5003499;28;20057;-74
2023/10/10 12:42:34;;;;;;;13.85;4.30;;;;;;;19.02;49.97;95611.97;5008282;28;20442;-76
2023/10/10 12:45:01;;;;;;;12.10;4.32;;;;;;;19.05;50.00;95622.91;5010246;28;20041;-77
2023/10/10 12:47:31;;;;;;;19.27;4.97;;;;;;;19.04;50.35;95636.66;4999160;28;20056;-77
2023/10/10 12:50:12;;;;;;;22.90;5.07;;;;;;;18.80;49.82;95624.47;4992575;28;20057;-77
2023/10/10 12:52:45;;;;;;;12.93;3.63;;;;;;;18.90;50.06;95644.88;5007345;28;20076;-77
2023/10/10 12:55:11;;;;;;;13.15;4.10;;;;;;;18.60;49.99;95605.47;5010664;28;20037;-77
2023/10/10 12:57:37;;;;;;;17.60;3.63;;;;;;;18.82;49.99;95621.47;4996975;28;20037;-77
2023/10/10 13:02:48;;;;;;;15.38;4.32;;;;;;;18.87;49.56;95634.72;5008528;28;20146;-77
2023/10/10 13:05:16;;;;;;;8.65;2.80;;;;;;;18.87;49.08;95629.38;5013123;28;20483;-78
2023/10/10 13:07:43;;;;;;;12.88;3.38;;;;;;;18.80;48.90;95639.78;4992865;28;20665;-76
2023/10/10 13:10:13;;;;;;;15.25;3.17;;;;;;;18.41;49.01;95589.59;5003175;28;20061;-78
2023/10/10 13:12:39;;;;;;;11.77;3.00;;;;;;;18.56;48.88;95618.72;4994827;28;20468;-77
2023/10/10 13:15:29;;;;;;;10.95;3.88;;;;;;;18.65;48.92;95646.41;4985024;28;20079;-77
2023/10/10 13:18:11;;;;;;;14.73;2.85;;;;;;;18.48;49.16;95614.09;5008151;28;20072;-77
2023/10/10 13:20:38;;;;;;;8.50;3.00;;;;;;;18.50;48.76;95610.00;4989248;28;20053;-76
2023/10/10 13:23:06;;;;;;;8.18;3.55;;;;;;;18.52;49.01;95618.53;4995687;28;20545;-76
2023/10/10 13:25:37;;;;;;;16.10;3.33;;;;;;;18.67;48.80;95629.97;4989490;28;20435;-76
2023/10/10 13:28:09;;;;;;;13.23;3.30;;;;;;;18.82;48.94;95642.97;4991420;28;20041;-77
2023/10/10 13:30:46;;;;;;;16.88;3.55;;;;;;;18.89;48.67;95645.97;5009572;28;20052;-77
2023/10/10 13:33:20;;;;;;;11.73;3.38;;;;;;;18.84;48.81;95633.47;4998483;28;20399;-78
2023/10/10 13:35:48;;;;;;;15.55;3.20;;;;;;;18.82;48.67;95640.28;4989579;28;20045;-77
2023/10/10 13:38:14;;;;;;;5.88;2.83;;;;;;;18.79;48.79;95628.25;5004964;28;20346;-77
2023/10/10 13:40:46;;;;;;;13.40;3.58;;;;;;;18.93;48.82;95644.22;5005808;28;20121;-77
2023/10/10 13:43:18;;;;;;;16.33;4.15;;;;;;;18.94;48.65;95621.63;4996130;28;20056;-76
2023/10/10 13:45:50;;;;;;;8.38;3.33;;;;;;;18.86;48.58;95615.13;5008188;28;20041;-76
2023/10/10 13:48:18;;;;;;;11.13;4.13;;;;;;;18.77;49.07;95618.91;5004072;28;20154;-75
2023/10/10 13:50:45;;;;;;;10.50;3.45;;;;;;;18.71;48.99;95609.41;4981305;28;20298;-76
2023/10/10 13:53:12;;;;;;;15.35;3.60;;;;;;;18.78;49.11;95607.06;4987669;28;20073;-76
2023/10/10 13:55:42;;;;;;;13.13;3.80;;;;;;;18.91;49.16;95640.28;4991325;28;20583;-77
2023/10/10 13:58:16;;;;;;;10.48;3.53;;;;;;;18.77;49.43;95630.44;4983462;28;20040;-77
2023/10/10 14:00:55;;;;;;;13.95;4.15;;;;;;;18.93;49.50;95635.38;5010167;28;20053;-78
2023/10/10 14:03:35;;;;;;;25.20;4.80;;;;;;;18.75;49.71;95631.88;5005773;28;20055;-77
2023/10/10 14:06:04;;;;;;;23.73;5.10;;;;;;;18.48;50.01;95616.78;4996342;28;20128;-79
2023/10/10 14:08:30;;;;;;;15.40;4.35;;;;;;;18.65;50.18;95646.41;5012840;28;20180;-78
2023/10/10 14:10:59;;;;;;;23.73;5.60;;;;;;;18.64;50.09;95644.00;4994232;28;20040;-77
2023/10/10 14:13:28;;;;;;;21.23;4.97;;;;;;;18.34;50.40;95602.69;5008316;28;20094;-77
2023/10/10 14:15:55;;;;;;;18.88;4.80;;;;;;;18.51;50.26;95621.53;4986389;28;20140;-78
2023/10/10 14:18:34;;;;;;;13.65;3.63;;;;;;;18.68;50.32;95650.38;4995194;28;20041;-78
2023/10/10 14:21:08;;;;;;;13.80;4.25;;;;;;;18.64;50.24;95669.00;4981177;28;20053;-78
2023/10/10 14:23:37;;;;;;;21.15;4.15;;;;;;;18.21;50.37;95590.19;4985463;28;20049;-78
2023/10/10 14:26:12;;;;;;;14.55;3.83;;;;;;;18.63;50.24;95651.28;4995595;28;20056;-77
2023/10/10 14:28:40;;;;;;;10.27;3.78;;;;;;;18.55;50.08;95635.91;4991692;28;20084;-77
2023/10/10 14:31:11;;;;;;;10.52;3.05;;;;;;;18.50;50.15;95636.84;5005648;28;20072;-77
2023/10/10 14:33:39;;;;;;;12.77;3.65;;;;;;;18.52;50.37;95658.81;4992379;28;20539;-77
2023/10/10 14:36:11;;;;;;;9.82;3.30;;;;;;;18.62;50.18;95659.66;5010160;28;20096;-78
2023/10/10 14:38:37;;;;;;;18.85;3.55;;;;;;;18.68;50.05;95675.34;5000104;28;20044;-77
2023/10/10 14:41:02;;;;;;;10.00;3.05;;;;;;;18.30;50.12;95604.41;5005910;28;20085;-76
2023/10/10 14:43:28;;;;;;;16.23;3.35;;;;;;;18.50;50.15;95654.88;4993428;28;20441;-76
2023/10/10 14:45:54;;;;;;;16.17;4.28;;;;;;;18.36;50.34;95646.94;4993978;28;20532;-75
2023/10/10 14:48:19;;;;;;;12.07;3.28;;;;;;;18.40;50.62;95657.81;4990462;28;20165;-75
2023/10/10 14:50:52;;;;;;;16.15;3.90;;;;;;;18.49;50.70;95659.44;5004813;28;20503;-76
2023/10/10 14:53:22;;;;;;;17.90;3.60;;;;;;;18.60;50.57;95675.31;4984588;28;20304;-76
2023/10/10 14:55:51;;;;;;;11.98;3.80;;;;;;;18.42;50.60;95642.19;4991010;28;20653;-77
2023/10/10 14:58:21;;;;;;;11.80;3.88;;;;;;;18.48;50.83;95670.47;5010170;28;20104;-77
2023/10/10 15:00:49;;;;;;;10.10;3.10;;;;;;;18.01;50.95;95596.88;4987619;28;20033;-77
2023/10/10 15:03:16;;;;;;;7.50;3.45;;;;;;;18.37;51.02;95653.88;5018243;28;20459;-75
2023/10/10 15:05:47;;;;;;;15.43;3.92;;;;;;;18.34;50.84;95643.75;5000894;28;20037;-77
2023/10/10 15:08:14;;;;;;;10.35;3.38;;;;;;;18.29;51.20;95651.16;5006026;28;20038;-75